This is the latest recevied weather packets stored in our database for station/object KJ4EBE. If no packets are shown the sender has not sent any weather packets the latest 10 day(s).
| Time | Temp. | Humidity | Pressure | Rain* | Wind** | Luminosity | Snow |
|---|---|---|---|---|---|---|---|
| 1776971546 | 25.56° C | 76% | 1009.4 hPa | 0 mm | - | 408 W/m² | - |
| 1776971243 | 26.11° C | 77% | 1009.4 hPa | 0 mm | - | 391 W/m² | - |
| 1776970939 | 25.56° C | 77% | 1009.3 hPa | 0 mm | - | 336 W/m² | - |
| 1776970637 | 25° C | 79% | 1009.3 hPa | 0 mm | - | 307 W/m² | - |
| 1776970334 | 25.56° C | 77% | 1009.4 hPa | 0 mm | - | 330 W/m² | - |
| 1776970030 | 25.56° C | 77% | 1009.5 hPa | 0 mm | - | 451 W/m² | - |
| 1776969728 | 24.44° C | 80% | 1009.6 hPa | 0 mm | - | 404 W/m² | - |
| 1776969423 | 25.56° C | 78% | 1009.6 hPa | 0 mm | - | 228 W/m² | - |
| 1776969120 | 25° C | 80% | 1009.7 hPa | 0 mm | - | 476 W/m² | - |
| 1776968815 | 24.44° C | 81% | 1009.8 hPa | 0 mm | - | 349 W/m² | - |
| 1776968515 | 25° C | 81% | 1009.8 hPa | 0 mm | - | 228 W/m² | - |
| 1776968212 | 25° C | 80% | 1009.9 hPa | 0 mm | - | 298 W/m² | - |
| 1776967908 | 24.44° C | 81% | 1009.9 hPa | 0 mm | - | 450 W/m² | - |
| 1776967605 | 23.89° C | 82% | 1010.2 hPa | 0 mm | - | 305 W/m² | - |
| 1776967300 | 23.89° C | 83% | 1010.3 hPa | 0 mm | - | 150 W/m² | - |
| 1776966994 | 23.89° C | 83% | 1010.4 hPa | 0 mm | - | 268 W/m² | - |
| 1776966690 | 23.89° C | 83% | 1010.5 hPa | 0 mm | - | 186 W/m² | - |
| 1776966386 | 23.89° C | 83% | 1010.8 hPa | 0 mm | - | 273 W/m² | - |
| 1776966081 | 23.89° C | 83% | 1010.7 hPa | 0 mm | - | 223 W/m² | - |
| 1776965778 | 23.89° C | 83% | 1010.9 hPa | 0 mm | - | 168 W/m² | - |
| 1776965476 | 23.89° C | 82% | 1010.9 hPa | 0 mm | - | 200 W/m² | - |
| 1776965170 | 23.89° C | 83% | 1010.9 hPa | 0 mm | - | 276 W/m² | - |
| 1776964865 | 23.33° C | 84% | 1011.4 hPa | 0 mm | - | 252 W/m² | - |
| 1776964563 | 23.33° C | 84% | 1011.1 hPa | 0 mm | - | 202 W/m² | - |
| 1776964262 | 23.33° C | 84% | 1011.3 hPa | 0 mm | - | 134 W/m² | - |
* Rain latest hour (hover to see other rain measurements)
** Current wind speed in m/s (hover to see current wind gust speed)